Terminal Aerodrome Forecast
Issued by NWS

Home | Current Version | Previous Version | Text Only | Print | Product List | Glossary Off
Versions: 1 2 3 4 5 6 7 8 9 10 11 12 13 14

000
FTUS43 KGRB 220500
TAFCWA
TAF
KCWA 220525Z 2206/2306 17005KT 6SM BR SCT020 BKN035 WS010/21035KT
     FM221400 21013G22KT P6SM SCT020 SCT035 PROB30 2215/2218 3SM
      TSRA OVC025CB
     FM221800 28014G28KT P6SM SCT035 BKN060
     FM222200 34012G20KT P6SM SCT035
     FM230200 35006KT P6SM SKC
      AMD LTD TO CLD VIS AND WIND TIL 221100=

USA.gov is the U.S. government's official web portal to all federal, state and local government web resources and services.